Time;durP1;ratioP1;P1;durP2;ratioP2;P2;SDS_P1;SDS_P2;PMS_P1;PMS_P2;Temp;Humidity;BMP_temperature;BMP_pressure;BME280_temperature;BME280_humidity;BME280_pressure;Samples;Min_cycle;Max_cycle;Signal;HPM_P1;HPM_P2
2022/03/24 00:01:48;;;;;;;54.72;31.08;;;;;;;12.49;33.20;101324.25;4923679;28;96714;-81
2022/03/24 00:04:14;;;;;;;56.63;32.78;;;;;;;12.23;32.80;101273.13;4941330;28;96980;-81
2022/03/24 00:06:40;;;;;;;51.33;31.60;;;;;;;12.53;33.39;101320.63;4918433;28;101405;-81
2022/03/24 00:09:06;;;;;;;55.10;31.65;;;;;;;12.48;33.04;101311.13;4909907;28;101972;-81
2022/03/24 00:11:31;;;;;;;67.95;34.15;;;;;;;12.37;33.15;101304.38;4902814;28;97281;-81
2022/03/24 00:13:57;;;;;;;54.20;32.22;;;;;;;12.34;33.19;101306.25;4915102;28;97259;-81
2022/03/24 00:16:23;;;;;;;62.33;33.33;;;;;;;12.29;33.70;101334.44;4936897;28;98446;-81
2022/03/24 00:18:49;;;;;;;62.45;34.80;;;;;;;12.24;33.65;101339.81;4921655;28;101640;-80
2022/03/24 00:21:16;;;;;;;60.95;34.63;;;;;;;12.10;33.60;101308.59;4922352;28;96714;-80
2022/03/24 00:23:42;;;;;;;59.70;32.08;;;;;;;12.21;33.75;101318.81;4920799;28;97197;-81
2022/03/24 00:26:08;;;;;;;57.50;32.80;;;;;;;12.16;33.74;101316.34;4905777;28;101168;-83
2022/03/24 00:28:34;;;;;;;55.47;31.02;;;;;;;12.13;33.88;101329.56;4905201;28;101735;-81
2022/03/24 00:31:01;;;;;;;59.70;33.20;;;;;;;12.11;34.38;101334.00;4906607;28;97019;-81
2022/03/24 00:33:28;;;;;;;56.75;32.63;;;;;;;11.78;34.28;101283.03;4904240;28;97584;-81
2022/03/24 00:35:55;;;;;;;56.72;31.30;;;;;;;12.10;34.26;101331.38;4909598;28;101128;-81
2022/03/24 00:38:21;;;;;;;57.30;31.73;;;;;;;11.83;34.55;101293.41;4912086;28;101510;-80
2022/03/24 00:40:46;;;;;;;53.67;30.65;;;;;;;11.86;34.44;101328.44;4924562;28;97217;-81
2022/03/24 00:43:12;;;;;;;58.75;33.58;;;;;;;11.83;34.73;101325.84;4925994;28;96943;-84
2022/03/24 00:45:41;;;;;;;52.45;30.60;;;;;;;11.86;34.73;101324.94;4921052;28;101746;-81
2022/03/24 00:48:08;;;;;;;52.47;30.60;;;;;;;11.83;34.71;101317.09;4905302;28;101336;-82
2022/03/24 00:50:35;;;;;;;51.85;32.28;;;;;;;11.77;35.37;101329.47;4921547;28;97856;-80
2022/03/24 00:53:02;;;;;;;49.75;31.33;;;;;;;11.90;35.07;101330.13;4921872;28;97016;-81
2022/03/24 00:55:28;;;;;;;51.03;31.50;;;;;;;11.71;35.35;101321.72;4920113;28;101739;-81
2022/03/24 00:57:54;;;;;;;53.58;33.28;;;;;;;11.59;35.27;101308.00;4921688;28;98365;-81
2022/03/24 01:00:22;;;;;;;49.15;30.13;;;;;;;11.64;35.38;101324.56;4907385;28;97238;-81
2022/03/24 01:02:50;;;;;;;55.33;30.80;;;;;;;11.63;35.15;101323.66;4937441;28;97432;-82
2022/03/24 01:05:16;;;;;;;50.22;30.23;;;;;;;11.42;35.34;101301.34;4929775;28;101232;-81
2022/03/24 01:07:43;;;;;;;53.50;32.20;;;;;;;11.56;35.74;101314.19;4925012;28;101711;-85
2022/03/24 01:10:11;;;;;;;51.72;29.95;;;;;;;11.48;35.68;101314.34;4934825;28;97267;-81
2022/03/24 01:12:39;;;;;;;54.83;31.42;;;;;;;11.46;35.66;101331.94;4921965;28;97451;-81
2022/03/24 01:15:10;;;;;;;56.28;30.85;;;;;;;11.36;35.63;101322.53;4906566;28;100985;-80
2022/03/24 01:17:36;;;;;;;49.50;30.70;;;;;;;11.27;36.20;101310.44;4946636;28;98261;-81
2022/03/24 01:20:03;;;;;;;51.58;31.05;;;;;;;11.18;35.93;101302.75;4924242;28;96962;-82
2022/03/24 01:22:29;;;;;;;47.47;30.23;;;;;;;11.16;36.03;101308.94;4921715;28;97155;-82
2022/03/24 01:24:56;;;;;;;53.03;30.83;;;;;;;11.19;36.05;101314.97;4936945;28;98354;-80
2022/03/24 01:27:25;;;;;;;49.40;30.27;;;;;;;11.32;35.66;101313.84;4906094;28;100814;-81
2022/03/24 01:29:57;;;;;;;;;;;;;;;11.37;35.97;101323.38;4904722;28;96766;-81
2022/03/24 01:32:24;;;;;;;54.42;31.10;;;;;;;11.23;35.82;101323.69;4949610;28;96809;-81
2022/03/24 01:34:50;;;;;;;54.65;30.73;;;;;;;11.14;35.95;101308.97;4923606;28;100392;-81
2022/03/24 01:37:19;;;;;;;56.85;32.25;;;;;;;11.26;36.17;101331.50;4906008;28;101449;-81
2022/03/24 01:39:45;;;;;;;55.25;31.58;;;;;;;11.19;36.50;101337.78;4914738;28;96710;-81
2022/03/24 01:42:11;;;;;;;65.53;31.02;;;;;;;11.14;36.58;101330.00;4925615;28;97181;-81
2022/03/24 01:44:38;;;;;;;52.08;30.90;;;;;;;11.07;36.70;101331.88;4908214;28;101524;-81
2022/03/24 01:47:09;;;;;;;55.58;32.10;;;;;;;10.98;36.67;101331.19;4915411;28;102088;-81
2022/03/24 01:49:39;;;;;;;53.55;31.42;;;;;;;10.91;36.94;101329.56;4918775;28;96784;-81
2022/03/24 01:52:07;;;;;;;57.30;30.43;;;;;;;10.90;36.85;101326.06;4918769;28;96869;-80
2022/03/24 01:54:33;;;;;;;51.47;30.48;;;;;;;10.62;37.39;101278.50;4899901;28;101521;-81
2022/03/24 01:56:59;;;;;;;49.92;30.65;;;;;;;10.93;37.01;101314.66;4890516;28;101860;-81
2022/03/24 01:59:25;;;;;;;50.90;30.50;;;;;;;10.92;37.19;101321.66;4924384;28;97400;-81
2022/03/24 02:01:51;;;;;;;52.60;32.15;;;;;;;10.86;37.41;101325.28;4887650;28;96954;-81
2022/03/24 02:04:19;;;;;;;52.88;31.92;;;;;;;10.76;37.39;101323.75;4928829;28;101378;-82
2022/03/24 02:06:46;;;;;;;50.97;30.25;;;;;;;10.67;37.66;101329.13;4921786;28;100738;-83
2022/03/24 02:09:12;;;;;;;52.22;32.05;;;;;;;10.67;37.56;101323.03;4905132;28;97205;-81
2022/03/24 02:11:38;;;;;;;52.28;30.70;;;;;;;10.58;37.41;101313.56;4894931;28;97332;-81
2022/03/24 02:14:04;;;;;;;55.45;31.70;;;;;;;10.46;37.59;101319.91;4887299;28;101430;-81
2022/03/24 02:16:39;;;;;;;52.67;30.77;;;;;;;10.50;37.70;101332.09;4900441;28;101641;-81
2022/03/24 02:19:12;;;;;;;47.58;30.42;;;;;;;10.35;38.14;101314.81;4916320;28;97110;-81
2022/03/24 02:21:39;;;;;;;50.47;30.35;;;;;;;10.50;38.01;101326.84;4916735;28;97189;-81
2022/03/24 02:24:05;;;;;;;51.20;31.80;;;;;;;10.56;38.48;101333.72;4900684;28;101435;-81
2022/03/24 02:26:31;;;;;;;49.10;31.05;;;;;;;10.36;38.25;101313.09;4916772;28;101303;-81
2022/03/24 02:28:57;;;;;;;51.58;30.55;;;;;;;10.37;38.57;101331.41;4917077;28;96765;-81
2022/03/24 02:31:23;;;;;;;52.00;31.30;;;;;;;10.36;38.69;101326.22;4906781;28;97136;-82
2022/03/24 02:34:37;;;;;;;55.88;30.90;;;;;;;10.25;38.35;101315.00;4913790;28;102128;-81
2022/03/24 02:36:39;;;;;;;54.55;31.65;;;;;;;10.29;38.58;101341.16;4929505;28;101561;-81
2022/03/24 02:39:06;;;;;;;52.78;30.35;;;;;;;10.18;38.78;101337.81;4887791;28;97045;-81
2022/03/24 02:41:31;;;;;;;51.72;31.60;;;;;;;10.14;38.86;101341.41;4903960;28;97227;-81
2022/03/24 02:43:58;;;;;;;50.25;31.55;;;;;;;10.04;38.81;101324.94;4910451;28;98191;-82
2022/03/24 02:46:24;;;;;;;53.42;30.42;;;;;;;10.09;38.80;101340.59;4912248;28;99697;-82
2022/03/24 02:48:50;;;;;;;53.33;31.30;;;;;;;10.07;38.57;101338.00;4912231;28;96928;-82
2022/03/24 02:51:16;;;;;;;53.78;31.27;;;;;;;9.88;38.63;101316.44;4932815;28;98227;-82
2022/03/24 02:53:41;;;;;;;52.85;31.30;;;;;;;9.99;38.89;101345.13;4902332;28;101742;-81
2022/03/24 02:56:07;;;;;;;54.05;30.98;;;;;;;9.94;38.80;101339.09;4903804;28;101673;-81
2022/03/24 02:58:33;;;;;;;47.97;29.58;;;;;;;9.84;39.13;101322.63;4919650;28;97210;-81
2022/03/24 03:00:58;;;;;;;47.63;29.45;;;;;;;9.87;38.72;101329.59;4920885;28;97075;-81
2022/03/24 03:03:24;;;;;;;56.95;31.45;;;;;;;9.78;39.02;101327.09;4919396;28;101601;-81
2022/03/24 03:05:50;;;;;;;54.30;30.85;;;;;;;9.92;38.86;101354.00;4920729;28;101472;-80
2022/03/24 03:08:18;;;;;;;52.58;31.98;;;;;;;9.66;38.97;101320.28;4935347;28;96971;-83
2022/03/24 03:10:43;;;;;;;54.95;31.13;;;;;;;9.78;39.53;101355.94;4934253;28;97443;-81
2022/03/24 03:13:09;;;;;;;55.30;31.40;;;;;;;9.70;39.67;101346.41;4914905;28;101722;-81
2022/03/24 03:15:35;;;;;;;50.80;30.25;;;;;;;9.61;39.51;101336.06;4938309;28;98362;-81
2022/03/24 03:18:02;;;;;;;55.72;30.38;;;;;;;9.66;39.62;101357.84;4929514;28;96624;-80
2022/03/24 03:20:28;;;;;;;50.05;30.65;;;;;;;9.57;39.75;101350.13;4919490;28;96825;-80
2022/03/24 03:22:55;;;;;;;54.35;31.25;;;;;;;9.69;39.76;101349.09;4923176;28;101519;-82
2022/03/24 03:25:22;;;;;;;56.45;30.98;;;;;;;9.42;40.14;101318.84;4919829;28;98020;-81
2022/03/24 03:27:48;;;;;;;51.78;30.55;;;;;;;9.56;39.82;101355.38;4940573;28;97146;-80
2022/03/24 03:30:14;;;;;;;47.92;29.48;;;;;;;9.56;40.29;101358.84;4925112;28;97283;-81
2022/03/24 03:32:41;;;;;;;53.70;30.08;;;;;;;9.67;39.83;101370.06;4918276;28;101571;-80
2022/03/24 03:35:07;;;;;;;53.03;32.10;;;;;;;9.73;39.68;101364.72;4919517;28;102214;-81
2022/03/24 03:37:34;;;;;;;50.13;31.50;;;;;;;9.63;40.03;101355.28;4919326;28;97200;-81
2022/03/24 03:39:59;;;;;;;55.45;31.27;;;;;;;9.59;40.31;101353.56;4923024;28;97065;-81
2022/03/24 03:42:25;;;;;;;51.05;30.40;;;;;;;9.59;40.14;101365.81;4933048;28;97697;-81
2022/03/24 03:44:51;;;;;;;51.33;30.52;;;;;;;9.55;40.06;101358.88;4913707;28;98004;-81
2022/03/24 03:47:17;;;;;;;52.72;31.35;;;;;;;9.49;40.09;101352.84;4902908;28;97158;-83
2022/03/24 03:49:42;;;;;;;56.30;30.10;;;;;;;9.42;40.10;101339.81;4908471;28;96937;-81
2022/03/24 03:52:08;;;;;;;55.33;31.00;;;;;;;9.38;39.99;101351.25;4903337;28;101310;-81
2022/03/24 03:54:34;;;;;;;52.63;30.77;;;;;;;9.39;39.94;101353.81;4914715;28;102055;-84
2022/03/24 03:56:59;;;;;;;80.35;32.15;;;;;;;9.40;39.87;101362.59;4918470;28;97425;-81
2022/03/24 03:59:25;;;;;;;74.00;31.77;;;;;;;9.23;40.35;101337.44;4886930;28;97022;-81
2022/03/24 04:01:50;;;;;;;67.20;32.92;;;;;;;9.33;40.13;101368.75;4905958;28;97904;-81
2022/03/24 04:04:16;;;;;;;61.42;31.80;;;;;;;9.34;40.40;101367.88;4935082;28;101186;-81
2022/03/24 04:06:42;;;;;;;48.55;31.13;;;;;;;9.41;40.13;101370.41;4900542;28;97077;-82
2022/03/24 04:09:08;;;;;;;55.85;31.17;;;;;;;9.32;40.54;101364.41;4921135;28;96816;-81
2022/03/24 04:11:35;;;;;;;55.13;31.70;;;;;;;9.19;40.64;101355.81;4902887;28;101137;-81
2022/03/24 04:14:01;;;;;;;54.97;31.20;;;;;;;9.20;40.56;101365.44;4924180;28;101079;-80
2022/03/24 04:16:26;;;;;;;56.95;30.55;;;;;;;9.14;40.56;101355.03;4917236;28;96859;-82
2022/03/24 04:18:52;;;;;;;54.00;31.05;;;;;;;9.09;41.09;101362.06;4919567;28;97843;-82
2022/03/24 04:21:18;;;;;;;55.00;31.27;;;;;;;9.07;40.73;101359.44;4925772;28;101847;-81
2022/03/24 04:23:44;;;;;;;56.15;31.58;;;;;;;9.13;41.01;101385.56;4913106;28;101175;-81
2022/03/24 04:26:11;;;;;;;71.78;33.72;;;;;;;9.02;40.67;101390.94;4901791;28;97052;-83
2022/03/24 04:28:36;;;;;;;67.07;35.45;;;;;;;8.88;41.22;101373.66;4906971;28;97063;-83
2022/03/24 04:31:02;;;;;;;67.28;33.67;;;;;;;8.84;40.87;101378.03;4919280;28;101039;-81
2022/03/24 04:33:28;;;;;;;60.63;32.92;;;;;;;8.87;41.34;101391.09;4917903;28;101873;-82
2022/03/24 04:35:53;;;;;;;54.25;31.70;;;;;;;8.74;41.11;101363.31;4919595;28;97705;-81
2022/03/24 04:38:19;;;;;;;56.03;32.67;;;;;;;8.96;41.37;101393.63;4917801;28;97463;-83
2022/03/24 04:40:45;;;;;;;62.97;35.03;;;;;;;8.72;41.13;101350.22;4918946;28;98193;-80
2022/03/24 04:43:11;;;;;;;75.88;34.63;;;;;;;8.84;40.87;101373.69;4919440;28;97849;-81
2022/03/24 04:45:37;;;;;;;63.72;33.38;;;;;;;8.60;41.19;101348.59;4918682;28;96941;-81
2022/03/24 04:48:03;;;;;;;69.03;33.25;;;;;;;8.61;41.41;101362.56;4943399;28;97072;-81
2022/03/24 04:50:30;;;;;;;71.13;35.25;;;;;;;8.64;41.49;101378.25;4922460;28;101033;-80
2022/03/24 04:52:56;;;;;;;62.00;34.30;;;;;;;8.64;41.25;101391.34;4922142;28;97935;-82
2022/03/24 04:55:22;;;;;;;67.05;34.50;;;;;;;8.52;41.30;101378.34;4923754;28;96802;-83
2022/03/24 04:57:47;;;;;;;66.28;35.13;;;;;;;8.64;41.82;101401.81;4922319;28;97130;-81
2022/03/24 05:00:16;;;;;;;66.93;35.60;;;;;;;8.56;41.42;101409.72;4905500;28;101392;-81
2022/03/24 05:02:41;;;;;;;66.93;33.35;;;;;;;8.57;41.79;101400.09;4907109;28;101448;-81
2022/03/24 05:05:07;;;;;;;65.55;33.15;;;;;;;8.54;41.73;101395.75;4937983;28;97112;-81
2022/03/24 05:07:33;;;;;;;62.30;34.22;;;;;;;8.64;41.63;101411.38;4918970;28;96928;-81
2022/03/24 05:09:59;;;;;;;62.72;33.47;;;;;;;8.63;41.84;101414.88;4919727;28;100925;-82
2022/03/24 05:12:25;;;;;;;60.25;32.72;;;;;;;8.58;41.74;101415.81;4920809;28;101409;-82
2022/03/24 05:14:50;;;;;;;67.40;33.45;;;;;;;8.53;42.13;101414.09;4921253;28;97222;-81
2022/03/24 05:17:17;;;;;;;60.35;33.35;;;;;;;8.48;42.04;101411.53;4905242;28;97184;-81
2022/03/24 05:19:48;;;;;;;58.75;33.60;;;;;;;8.39;42.23;101403.75;4936785;28;98459;-81
2022/03/24 05:22:14;;;;;;;59.57;33.87;;;;;;;8.42;42.20;101411.56;4917602;28;100997;-81
2022/03/24 05:24:41;;;;;;;59.25;35.55;;;;;;;8.36;42.49;101388.03;4914580;28;96681;-81
2022/03/24 05:27:07;;;;;;;65.60;33.33;;;;;;;8.55;42.30;101407.09;4937669;28;97023;-80
2022/03/24 05:29:33;;;;;;;64.88;34.13;;;;;;;8.70;42.03;101422.69;4925465;28;101657;-82
2022/03/24 05:31:59;;;;;;;57.67;33.50;;;;;;;8.58;42.30;101397.50;4904733;28;101499;-81
2022/03/24 05:34:25;;;;;;;57.22;33.45;;;;;;;8.57;42.35;101400.09;4908555;28;96741;-85
2022/03/24 05:36:51;;;;;;;56.47;33.70;;;;;;;8.50;42.00;101385.34;4921358;28;97478;-82
2022/03/24 05:39:16;;;;;;;66.88;35.50;;;;;;;8.69;42.08;101426.16;4913765;28;101737;-81
2022/03/24 05:41:42;;;;;;;58.45;33.42;;;;;;;8.95;41.58;101446.00;4920627;28;101808;-81
2022/03/24 05:44:08;;;;;;;59.83;33.95;;;;;;;8.96;42.14;101445.13;4946612;28;96931;-83
2022/03/24 05:46:35;;;;;;;57.35;33.58;;;;;;;9.00;42.08;101444.22;4904660;28;96923;-81
2022/03/24 05:49:02;;;;;;;60.15;33.90;;;;;;;9.06;42.32;101441.53;4915242;28;101033;-81
2022/03/24 05:51:47;;;;;;;62.47;33.97;;;;;;;9.16;41.86;101427.50;4928339;28;97189;-82
2022/03/24 05:54:15;;;;;;;61.63;34.75;;;;;;;9.31;41.58;101444.78;4913426;28;96954;-81
2022/03/24 05:56:41;;;;;;;59.78;35.35;;;;;;;9.42;41.92;101442.03;4926939;28;97882;-80
2022/03/24 05:59:08;;;;;;;57.35;34.05;;;;;;;9.33;41.22;101410.69;4922627;28;101062;-82
2022/03/24 06:01:34;;;;;;;69.30;37.88;;;;;;;9.58;41.62;101446.22;4904393;28;101538;-81
2022/03/24 06:04:00;;;;;;;63.55;36.70;;;;;;;9.49;41.29;101420.13;4917656;28;97157;-84
2022/03/24 06:06:29;;;;;;;61.83;36.13;;;;;;;9.72;41.43;101449.53;4920988;28;97278;-87
2022/03/24 06:08:57;;;;;;;69.65;39.67;;;;;;;9.80;41.58;101440.69;4913083;28;100626;-81
2022/03/24 06:11:24;;;;;;;67.57;38.78;;;;;;;9.98;41.59;101443.09;4920939;28;101341;-79
2022/03/24 06:13:49;;;;;;;66.97;39.60;;;;;;;9.91;40.67;101409.94;4919570;28;97256;-82
2022/03/24 06:16:15;;;;;;;63.28;38.78;;;;;;;9.94;41.42;101402.03;4919134;28;96783;-79
2022/03/24 06:18:41;;;;;;;64.13;38.33;;;;;;;10.29;40.70;101432.16;4895990;28;99881;-80
2022/03/24 06:21:08;;;;;;;70.97;38.38;;;;;;;10.56;40.23;101434.38;4922985;28;101299;-81
2022/03/24 06:23:34;;;;;;;59.25;36.25;;;;;;;10.80;40.21;101445.34;4925183;28;97699;-81
2022/03/24 06:26:00;;;;;;;62.80;36.80;;;;;;;10.76;39.66;101425.28;4912775;28;96922;-80
2022/03/24 06:28:32;;;;;;;69.03;39.70;;;;;;;10.97;39.74;101432.78;4907400;28;101392;-84
2022/03/24 06:30:57;;;;;;;;;;;;;;;11.22;39.41;101451.59;4913495;28;99939;-83
2022/03/24 06:33:26;;;;;;;65.22;37.03;;;;;;;11.40;38.87;101431.09;4934799;28;97371;-86
2022/03/24 06:35:53;;;;;;;61.80;36.03;;;;;;;11.44;39.00;101406.50;4917038;28;97072;-83
2022/03/24 06:38:27;;;;;;;65.55;39.03;;;;;;;11.90;38.35;101440.63;4920256;28;99510;-85
2022/03/24 06:40:54;;;;;;;62.55;37.17;;;;;;;12.15;38.15;101448.81;4926679;28;100786;-81
2022/03/24 06:43:19;;;;;;;59.97;38.05;;;;;;;12.15;37.87;101421.63;4926633;28;98230;-80
2022/03/24 06:45:46;;;;;;;58.80;38.17;;;;;;;12.38;37.69;101435.13;4918094;28;97290;-81
2022/03/24 06:48:37;;;;;;;66.55;37.55;;;;;;;12.42;37.37;101407.84;4930196;28;96974;-82
2022/03/24 06:51:03;;;;;;;60.33;37.05;;;;;;;12.80;37.46;101423.56;4915221;28;101298;-82
2022/03/24 06:53:28;;;;;;;58.40;36.30;;;;;;;12.96;37.24;101431.94;4903080;28;97191;-82
2022/03/24 06:55:55;;;;;;;68.80;38.22;;;;;;;13.12;36.37;101420.97;4920386;28;97074;-81
2022/03/24 06:58:22;;;;;;;61.75;37.08;;;;;;;13.41;36.24;101436.88;4896051;28;101577;-81
2022/03/24 07:00:48;;;;;;;60.53;36.38;;;;;;;13.78;35.87;101452.53;4908679;28;101714;-81
2022/03/24 07:03:13;;;;;;;62.00;37.80;;;;;;;14.02;35.26;101441.25;4919136;28;97260;-80
2022/03/24 07:05:39;;;;;;;64.68;38.33;;;;;;;14.13;34.96;101435.63;4903484;28;97139;-82
2022/03/24 07:08:08;;;;;;;58.28;37.08;;;;;;;14.33;34.79;101428.84;4916172;28;101437;-80
2022/03/24 07:10:35;;;;;;;58.92;35.47;;;;;;;14.75;34.43;101455.69;4924178;28;101986;-81
2022/03/24 07:13:01;;;;;;;62.60;36.30;;;;;;;14.79;33.92;101427.38;4910085;28;97274;-80
2022/03/24 07:15:27;;;;;;;57.25;36.20;;;;;;;14.98;33.87;101417.91;4899832;28;98103;-86
2022/03/24 07:17:53;;;;;;;57.70;37.08;;;;;;;15.47;33.18;101458.44;4919322;28;100988;-83
2022/03/24 07:20:18;;;;;;;61.78;35.75;;;;;;;15.38;32.90;101413.81;4919271;28;101135;-82
2022/03/24 07:22:46;;;;;;;61.80;36.05;;;;;;;15.86;32.14;101455.28;4902735;28;96980;-82
2022/03/24 07:25:11;;;;;;;60.33;35.78;;;;;;;15.84;32.11;101434.16;4916275;28;96882;-81
2022/03/24 07:27:38;;;;;;;54.78;35.42;;;;;;;16.22;31.89;101458.28;4918941;28;101453;-82
2022/03/24 07:30:04;;;;;;;55.47;32.28;;;;;;;16.25;31.38;101425.50;4900149;28;100756;-84
2022/03/24 07:32:31;;;;;;;50.05;33.80;;;;;;;16.60;30.70;101442.63;4918086;28;97118;-82
2022/03/24 07:34:56;;;;;;;47.75;32.50;;;;;;;16.48;30.09;101429.88;4915649;28;97255;-81
2022/03/24 07:37:22;;;;;;;51.80;33.17;;;;;;;16.73;29.70;101457.09;4901351;28;101217;-81
2022/03/24 07:39:48;;;;;;;44.53;31.80;;;;;;;17.01;29.79;101468.34;4901918;28;100890;-82
2022/03/24 07:42:14;;;;;;;47.60;32.08;;;;;;;17.01;29.43;101445.34;4900545;28;96837;-82
2022/03/24 07:44:40;;;;;;;54.95;34.85;;;;;;;17.26;28.58;101466.38;4914696;28;97755;-83
2022/03/24 07:47:06;;;;;;;48.63;31.95;;;;;;;17.41;28.33;101457.72;4898724;28;101118;-79
2022/03/24 07:49:32;;;;;;;48.78;32.33;;;;;;;17.58;28.44;101454.31;4919260;28;101460;-80
2022/03/24 07:51:58;;;;;;;48.47;30.67;;;;;;;17.65;27.95;101441.63;4922235;28;97272;-84
2022/03/24 07:55:05;;;;;;;49.38;32.00;;;;;;;18.05;27.83;101458.41;4906376;28;98062;-83
2022/03/24 07:57:30;;;;;;;48.20;31.08;;;;;;;18.28;27.54;101462.63;4855387;28;101666;-82
2022/03/24 08:00:00;;;;;;;41.22;29.38;;;;;;;18.27;27.37;101448.47;4889502;28;100981;-82
2022/03/24 08:02:27;;;;;;;48.60;30.98;;;;;;;18.48;27.18;101465.16;4922641;28;96928;-84
2022/03/24 08:04:53;;;;;;;47.33;31.58;;;;;;;18.57;26.71;101450.56;4898833;28;97207;-81
2022/03/24 08:07:20;;;;;;;48.67;31.48;;;;;;;18.76;26.50;101458.50;4903827;28;100415;-84
2022/03/24 08:09:45;;;;;;;51.83;30.05;;;;;;;18.85;26.49;101454.50;4914483;28;101192;-84
2022/03/24 08:12:11;;;;;;;46.38;29.60;;;;;;;19.03;26.47;101463.38;4914884;28;96813;-84
2022/03/24 08:14:37;;;;;;;46.35;30.80;;;;;;;19.22;26.17;101450.81;4916999;28;97332;-86
2022/03/24 08:17:03;;;;;;;44.60;29.88;;;;;;;18.83;26.48;101456.41;4915224;28;101503;-82
2022/03/24 08:19:29;;;;;;;44.97;31.73;;;;;;;19.16;26.24;101454.66;4898210;28;101644;-83
2022/03/24 08:21:54;;;;;;;43.85;30.35;;;;;;;19.69;26.14;101458.09;4902950;28;97254;-83
2022/03/24 08:24:20;;;;;;;49.97;31.67;;;;;;;19.94;26.13;101438.13;4914525;28;97383;-87
2022/03/24 08:26:45;;;;;;;45.95;31.10;;;;;;;20.23;25.42;101455.16;4917555;28;100177;-86
2022/03/24 08:29:12;;;;;;;53.60;33.08;;;;;;;20.31;24.99;101452.91;4918752;28;101091;-84
2022/03/24 08:31:37;;;;;;;51.17;30.90;;;;;;;20.25;25.18;101439.94;4936196;28;97404;-81
2022/03/24 08:34:03;;;;;;;53.67;33.30;;;;;;;20.52;24.96;101458.81;4897092;28;97395;-83
2022/03/24 08:36:28;;;;;;;45.88;31.92;;;;;;;20.63;24.73;101447.56;4891312;28;101257;-82
2022/03/24 08:38:56;;;;;;;52.90;32.95;;;;;;;20.83;24.44;101449.91;4935706;28;98125;-82
2022/03/24 08:41:22;;;;;;;53.33;34.15;;;;;;;20.83;24.44;101433.91;4919983;28;97114;-82
2022/03/24 08:43:48;;;;;;;49.13;31.52;;;;;;;21.09;24.40;101456.38;4913184;28;97617;-82
2022/03/24 08:46:14;;;;;;;52.38;32.88;;;;;;;21.13;24.26;101449.88;4911746;28;97610;-82
2022/03/24 08:48:39;;;;;;;43.67;30.75;;;;;;;21.37;23.98;101452.91;4899577;28;101316;-81
2022/03/24 08:51:06;;;;;;;42.42;30.48;;;;;;;21.43;23.97;101454.31;4912626;28;98069;-83
2022/03/24 08:53:31;;;;;;;45.95;31.23;;;;;;;21.64;23.90;101452.13;4929848;28;97515;-83
2022/03/24 08:55:57;;;;;;;44.10;30.83;;;;;;;21.88;23.72;101447.06;4911532;28;99051;-82
2022/03/24 08:58:24;;;;;;;47.05;31.48;;;;;;;22.21;23.62;101453.91;4919695;28;100133;-83
2022/03/24 09:00:50;;;;;;;43.95;30.38;;;;;;;22.48;23.63;101452.06;4915897;28;97213;-83
2022/03/24 09:03:16;;;;;;;51.63;31.30;;;;;;;22.72;23.32;101465.66;4905251;28;96845;-84
2022/03/24 09:05:42;;;;;;;43.05;30.02;;;;;;;22.92;23.18;101456.28;4893643;28;101863;-83
2022/03/24 09:08:07;;;;;;;47.58;30.63;;;;;;;23.19;22.95;101458.91;4919976;28;100962;-84
2022/03/24 09:10:33;;;;;;;50.60;30.00;;;;;;;23.34;22.79;101462.34;4908444;28;98101;-84
2022/03/24 09:12:59;;;;;;;43.45;29.52;;;;;;;23.42;22.34;101448.41;4920430;28;96988;-84
2022/03/24 09:15:26;;;;;;;45.60;29.63;;;;;;;23.65;22.25;101453.00;4922493;28;101085;-84
2022/03/24 09:17:51;;;;;;;39.72;28.55;;;;;;;23.96;21.98;101453.50;4922760;28;97706;-84
2022/03/24 09:20:18;;;;;;;38.00;27.27;;;;;;;24.08;21.34;101432.97;4920935;28;97099;-84
2022/03/24 09:22:46;;;;;;;41.60;27.77;;;;;;;24.28;20.81;101448.44;4917245;28;97240;-87
2022/03/24 09:25:14;;;;;;;43.33;30.05;;;;;;;24.47;20.95;101463.22;4906575;28;99965;-84
2022/03/24 09:27:41;;;;;;;37.13;28.55;;;;;;;24.51;21.06;101456.66;4916130;28;98035;-86
2022/03/24 09:30:08;;;;;;;42.53;28.35;;;;;;;24.49;20.91;101456.75;4901043;28;98044;-83
2022/03/24 09:32:34;;;;;;;36.22;27.05;;;;;;;24.34;20.92;101431.91;4938656;28;96883;-85
2022/03/24 09:35:02;;;;;;;41.10;29.58;;;;;;;24.54;21.00;101432.28;4925301;28;101469;-85
2022/03/24 09:37:28;;;;;;;36.40;28.95;;;;;;;25.03;20.56;101450.00;4935912;28;97383;-80
2022/03/24 09:39:54;;;;;;;37.30;28.92;;;;;;;25.14;20.39;101462.66;4919828;28;96783;-84
2022/03/24 09:42:21;;;;;;;41.38;30.45;;;;;;;25.17;20.43;101459.72;4916231;28;96875;-82
2022/03/24 09:44:47;;;;;;;42.78;30.92;;;;;;;25.24;20.61;101464.47;4917743;28;101045;-82
2022/03/24 09:47:13;;;;;;;39.00;29.55;;;;;;;25.29;20.32;101461.44;4902582;28;101274;-82
2022/03/24 09:49:40;;;;;;;43.35;30.60;;;;;;;25.40;19.75;101447.16;4914133;28;96808;-82
2022/03/24 09:52:10;;;;;;;36.42;27.27;;;;;;;25.27;19.94;101458.84;4903557;28;97409;-81
2022/03/24 09:54:35;;;;;;;35.92;29.38;;;;;;;25.30;19.93;101444.34;4914036;28;98067;-82
2022/03/24 09:57:06;;;;;;;40.72;30.63;;;;;;;25.38;20.19;101444.59;4903703;28;101454;-81
2022/03/24 09:59:31;;;;;;;38.53;28.38;;;;;;;25.41;20.32;101448.88;4919550;28;97054;-81
2022/03/24 10:01:57;;;;;;;40.75;28.42;;;;;;;25.44;20.16;101457.53;4919538;28;97030;-81
2022/03/24 10:04:23;;;;;;;44.50;29.83;;;;;;;25.50;20.41;101457.06;4942600;28;101314;-83
2022/03/24 10:07:03;;;;;;;36.53;27.98;;;;;;;25.38;19.73;101433.00;4934587;28;98029;-82
2022/03/24 10:09:49;;;;;;;42.28;30.50;;;;;;;25.10;19.34;101445.84;4898512;28;97831;-81
2022/03/24 10:12:24;;;;;;;45.78;33.47;;;;;;;24.95;19.85;101444.38;4915343;28;96947;-79
2022/03/24 10:15:12;;;;;;;46.08;33.05;;;;;;;24.82;20.26;101447.16;4915323;28;98488;-81
2022/03/24 10:17:40;;;;;;;44.83;32.45;;;;;;;25.08;20.85;101450.50;4918459;28;101556;-81
2022/03/24 10:20:20;;;;;;;52.10;34.35;;;;;;;25.08;20.49;101448.69;4919050;28;96977;-78
2022/03/24 10:23:15;;;;;;;41.78;28.88;;;;;;;24.88;20.13;101449.34;4919911;28;96847;-80
2022/03/24 10:25:42;;;;;;;34.53;20.73;;;;;;;24.85;19.19;101442.38;4912141;28;97688;-78
2022/03/24 10:28:17;;;;;;;46.85;27.65;;;;;;;24.52;19.66;101443.13;4923436;28;101156;-77
2022/03/24 10:30:54;;;;;;;31.95;22.95;;;;;;;24.14;18.86;101433.41;4930804;28;97445;-82
2022/03/24 10:33:35;;;;;;;39.85;23.77;;;;;;;24.15;20.03;101431.56;4917649;28;96861;-80
2022/03/24 10:36:04;;;;;;;35.83;22.77;;;;;;;24.08;19.53;101432.97;4917630;28;101726;-80
2022/03/24 10:38:34;;;;;;;38.65;25.00;;;;;;;23.86;19.71;101434.56;4915519;28;100791;-82
2022/03/24 10:41:23;;;;;;;33.35;22.98;;;;;;;23.52;19.64;101421.81;4902729;28;96800;-80
2022/03/24 10:43:50;;;;;;;33.03;20.58;;;;;;;23.01;19.78;101446.81;4904982;28;97130;-80
2022/03/24 10:46:17;;;;;;;32.15;21.55;;;;;;;22.88;20.17;101429.81;4909479;28;102008;-80
2022/03/24 10:48:43;;;;;;;33.55;21.15;;;;;;;22.76;20.24;101427.00;4916500;28;101251;-81
2022/03/24 10:51:09;;;;;;;27.58;19.85;;;;;;;22.75;20.82;101427.97;4928826;28;97108;-81
2022/03/24 10:53:40;;;;;;;35.30;21.13;;;;;;;22.62;20.89;101435.09;4903929;28;100081;-79
2022/03/24 10:56:13;;;;;;;37.95;24.90;;;;;;;22.33;21.21;101419.19;4911953;28;101826;-82
2022/03/24 10:58:42;;;;;;;39.88;24.17;;;;;;;22.27;21.25;101432.94;4921330;28;101106;-81
2022/03/24 11:01:09;;;;;;;42.33;24.73;;;;;;;22.17;21.76;101430.97;4935012;28;97324;-81
2022/03/24 11:03:35;;;;;;;35.47;23.23;;;;;;;22.16;21.91;101430.09;4913964;28;96956;-84
2022/03/24 11:06:30;;;;;;;30.55;20.10;;;;;;;21.80;21.80;101401.25;4934422;28;101079;-83
2022/03/24 11:08:59;;;;;;;35.22;20.33;;;;;;;21.86;21.55;101414.22;4904572;28;101700;-81
2022/03/24 11:11:25;;;;;;;33.00;19.65;;;;;;;21.82;21.88;101420.75;4918183;28;96802;-80